Time;durP1;ratioP1;P1;durP2;ratioP2;P2;SDS_P1;SDS_P2;PMS_P1;PMS_P2;Temp;Humidity;BMP_temperature;BMP_pressure;BME280_temperature;BME280_humidity;BME280_pressure;Samples;Min_cycle;Max_cycle;Signal;HPM_P1;HPM_P2
2022/10/18 00:01:27;;;;;;;4.05;1.63;;;8.70;99.90;;;;;;21059962;28;20032;-51
2022/10/18 00:11:31;;;;;;;2.35;1.50;;;8.60;99.90;;;;;;21058845;28;20035;-52
2022/10/18 00:21:33;;;;;;;2.20;1.73;;;9.50;99.90;;;;;;21038389;28;20084;-51
2022/10/18 00:31:37;;;;;;;4.25;1.90;;;10.00;99.90;;;;;;21056452;28;20485;-51
2022/10/18 00:41:40;;;;;;;2.90;2.00;;;10.00;99.90;;;;;;21055805;28;20070;-53
2022/10/18 00:51:55;;;;;;;3.03;1.90;;;8.90;99.90;;;;;;21055241;28;20481;-53
2022/10/18 01:01:57;;;;;;;3.58;2.20;;;8.70;99.90;;;;;;21055089;28;20028;-49
2022/10/18 01:12:23;;;;;;;2.97;1.90;;;8.70;99.90;;;;;;21037709;28;20337;-49
2022/10/18 01:22:44;;;;;;;4.00;2.92;;;9.00;99.90;;;;;;21033909;28;20098;-52
2022/10/18 01:32:51;;;;;;;3.97;2.70;;;8.80;99.90;;;;;;21054620;28;20036;-51
2022/10/18 01:42:53;;;;;;;5.70;3.05;;;8.80;99.90;;;;;;21052202;28;20040;-50
2022/10/18 01:52:57;;;;;;;4.38;3.10;;;8.50;99.90;;;;;;21035209;28;20028;-59
2022/10/18 02:03:17;;;;;;;3.70;2.60;;;8.40;99.90;;;;;;21051954;28;20093;-59
2022/10/18 02:13:24;;;;;;;4.43;2.72;;;8.60;99.90;;;;;;20975283;28;20094;-50
2022/10/18 02:23:27;;;;;;;5.75;3.60;;;8.50;99.90;;;;;;21019477;28;20044;-48
2022/10/18 02:33:38;;;;;;;7.53;4.32;;;8.50;99.90;;;;;;21050740;28;20032;-58
2022/10/18 02:43:41;;;;;;;4.85;2.97;;;8.40;99.90;;;;;;21050007;28;20048;-51
2022/10/18 02:53:43;;;;;;;4.90;3.28;;;8.50;99.90;;;;;;21036114;28;20073;-51
2022/10/18 03:03:46;;;;;;;5.35;3.50;;;8.60;99.90;;;;;;21047955;28;20036;-52
2022/10/18 03:13:49;;;;;;;5.25;3.17;;;8.50;99.90;;;;;;21063362;28;20040;-50
2022/10/18 03:23:52;;;;;;;6.43;3.80;;;8.30;99.90;;;;;;21042918;28;20085;-52
2022/10/18 03:33:54;;;;;;;6.53;3.95;;;8.50;99.90;;;;;;21062082;28;20105;-48
2022/10/18 03:43:57;;;;;;;8.23;3.83;;;8.80;99.90;;;;;;20979628;28;20440;-48
2022/10/18 03:54:00;;;;;;;7.28;4.13;;;8.70;99.90;;;;;;21016324;28;20102;-51
2022/10/18 04:04:02;;;;;;;6.35;3.70;;;8.40;99.90;;;;;;21042953;28;20040;-53
2022/10/18 04:14:05;;;;;;;8.18;4.10;;;8.40;99.90;;;;;;21058465;28;20393;-51
2022/10/18 04:24:08;;;;;;;6.25;3.00;;;8.40;99.90;;;;;;21038216;28;20036;-49
2022/10/18 04:34:10;;;;;;;4.10;2.70;;;8.50;99.90;;;;;;21041247;28;20385;-52
2022/10/18 04:44:13;;;;;;;4.63;3.17;;;8.40;99.90;;;;;;21056073;28;20496;-51
2022/10/18 04:54:15;;;;;;;4.95;3.08;;;8.40;99.90;;;;;;21055137;28;20048;-53
2022/10/18 05:04:18;;;;;;;3.25;2.50;;;8.40;99.90;;;;;;21054697;28;20481;-50
2022/10/18 05:14:21;;;;;;;6.50;3.10;;;8.60;99.90;;;;;;21053804;28;20036;-53
2022/10/18 05:24:23;;;;;;;5.15;3.00;;;8.70;99.90;;;;;;21033534;28;20035;-51
2022/10/18 05:34:30;;;;;;;6.45;4.10;;;9.00;99.90;;;;;;21053750;28;20081;-50
2022/10/18 05:44:33;;;;;;;5.53;3.83;;;8.80;99.90;;;;;;21048031;28;20048;-53
2022/10/18 05:54:36;;;;;;;5.85;3.47;;;8.70;99.90;;;;;;20974661;28;20040;-52
2022/10/18 06:04:38;;;;;;;4.95;3.53;;;8.50;99.90;;;;;;21051356;28;20070;-48
2022/10/18 06:14:42;;;;;;;6.60;3.75;;;8.60;99.90;;;;;;21051609;28;20040;-52
2022/10/18 06:24:45;;;;;;;94.85;8.20;;;8.80;99.90;;;;;;21031458;28;20028;-51
2022/10/18 06:34:48;;;;;;;6.40;3.63;;;8.80;99.90;;;;;;21048398;28;20028;-59
2022/10/18 06:44:50;;;;;;;8.38;4.35;;;9.00;99.90;;;;;;21066003;28;20047;-51
2022/10/18 06:54:52;;;;;;;7.53;4.35;;;9.20;99.90;;;;;;21065109;28;20078;-50
2022/10/18 07:04:55;;;;;;;7.82;3.65;;;9.70;99.90;;;;;;21065290;28;20036;-52
2022/10/18 07:14:58;;;;;;;4.72;3.50;;;10.40;99.90;;;;;;21063801;28;20368;-52
2022/10/18 07:25:01;;;;;;;8.00;4.07;;;11.10;99.90;;;;;;21043442;28;20035;-51
2022/10/18 07:35:04;;;;;;;6.38;4.63;;;11.90;99.90;;;;;;21062023;28;20473;-53
2022/10/18 07:45:07;;;;;;;8.15;4.93;;;13.20;99.90;;;;;;21060388;28;20101;-52
2022/10/18 07:55:10;;;;;;;12.75;9.05;;;14.50;99.90;;;;;;21059976;28;20514;-52
2022/10/18 08:05:12;;;;;;;11.98;7.85;;;15.50;99.90;;;;;;21059299;28;20047;-61
2022/10/18 08:15:16;;;;;;;10.10;7.65;;;16.10;99.90;;;;;;21058659;28;20101;-61
2022/10/18 08:25:19;;;;;;;15.35;8.88;;;16.70;99.90;;;;;;21038251;28;20093;-52
2022/10/18 08:35:21;;;;;;;9.60;7.95;;;17.40;99.90;;;;;;21057029;28;20098;-50
2022/10/18 08:45:26;;;;;;;9.40;7.40;;;17.80;99.90;;;;;;21056589;28;20501;-61
2022/10/18 08:55:41;;;;;;;8.25;7.00;;;18.10;99.90;;;;;;21054504;28;20044;-61
2022/10/18 09:05:54;;;;;;;7.25;6.00;;;18.40;99.90;;;;;;21054680;28;20032;-60
2022/10/18 09:16:00;;;;;;;6.47;5.22;;;18.80;99.90;;;;;;21037891;28;20142;-60
2022/10/18 09:26:13;;;;;;;7.70;6.50;;;19.00;99.90;;;;;;21034867;28;20036;-48
2022/10/18 09:36:37;;;;;;;7.80;6.07;;;19.30;99.90;;;;;;21052837;28;20359;-52
2022/10/18 09:46:48;;;;;;;8.25;7.00;;;19.50;99.90;;;;;;21035992;28;20052;-47
2022/10/18 09:57:19;;;;;;;9.05;7.53;;;19.80;99.90;;;;;;21051264;28;20093;-59
2022/10/18 10:07:27;;;;;;;8.00;6.90;;;20.00;99.90;;;;;;20643289;28;20074;-61
2022/10/18 10:17:32;;;;;;;9.87;8.17;;;20.20;99.90;;;;;;20659759;28;20047;-59
2022/10/18 10:27:43;;;;;;;8.43;7.07;;;20.30;99.90;;;;;;20633847;28;20042;-53
2022/10/18 10:37:51;;;;;;;9.38;7.38;;;20.20;99.90;;;;;;20750802;28;20085;-61
2022/10/18 10:48:00;;;;;;;9.68;7.72;;;20.30;99.90;;;;;;21065796;28;20488;-51
2022/10/18 10:58:02;;;;;;;7.90;6.55;;;20.20;99.90;;;;;;21064996;28;20055;-52
2022/10/18 11:08:09;;;;;;;10.13;7.13;;;20.50;99.90;;;;;;21047845;28;20044;-60
2022/10/18 11:18:15;;;;;;;9.00;7.70;;;20.90;99.90;;;;;;21052202;28;20086;-60
2022/10/18 11:28:39;;;;;;;8.93;6.65;;;21.00;99.90;;;;;;21054804;28;20081;-61
2022/10/18 11:39:00;;;;;;;8.38;6.60;;;21.00;99.90;;;;;;21061459;28;20040;-49
2022/10/18 11:49:14;;;;;;;10.70;6.65;;;21.00;99.90;;;;;;21061514;28;20040;-59
2022/10/18 11:59:28;;;;;;;9.05;7.72;;;21.00;99.90;;;;;;21059241;28;20093;-51
2022/10/18 12:09:44;;;;;;;13.88;8.93;;;21.00;99.90;;;;;;21060595;28;20043;-51
2022/10/18 12:19:48;;;;;;;12.40;9.45;;;21.10;99.90;;;;;;21038952;28;20105;-52
2022/10/18 12:30:02;;;;;;;16.15;12.02;;;21.10;99.90;;;;;;21042697;28;20374;-55
2022/10/18 12:40:24;;;;;;;13.65;11.77;;;21.00;99.90;;;;;;21057062;28;20101;-52
2022/10/18 12:50:36;;;;;;;15.85;12.88;;;20.60;99.90;;;;;;21055696;28;20044;-53
2022/10/18 13:00:40;;;;;;;16.08;13.02;;;20.30;99.90;;;;;;21025681;28;20035;-51
2022/10/18 13:10:43;;;;;;;15.18;12.63;;;20.00;99.90;;;;;;20934125;28;20121;-48
2022/10/18 13:20:50;;;;;;;19.80;14.60;;;19.90;99.90;;;;;;20712269;28;20076;-63
2022/10/18 13:31:08;;;;;;;21.85;15.25;;;19.60;99.90;;;;;;20731759;28;20567;-71
2022/10/18 13:41:20;;;;;;;22.95;16.60;;;18.50;99.90;;;;;;20710575;28;20104;-64
2022/10/18 13:52:07;;;;;;;21.48;16.45;;;17.60;99.90;;;;;;20663731;28;20042;-61
2022/10/18 14:02:40;;;;;;;21.98;15.23;;;17.00;99.90;;;;;;20481841;28;20146;-49
2022/10/18 14:12:50;;;;;;;68.45;17.80;;;16.60;99.90;;;;;;20522644;28;20114;-47
2022/10/18 14:23:11;;;;;;;22.85;14.20;;;16.90;99.90;;;;;;20545815;28;20409;-65
2022/10/18 14:33:31;;;;;;;18.17;13.23;;;17.00;99.90;;;;;;20636401;28;20446;-50
2022/10/18 14:43:37;;;;;;;20.88;13.70;;;16.90;99.90;;;;;;20841610;28;20109;-58
2022/10/18 14:53:40;;;;;;;17.15;12.85;;;16.50;99.90;;;;;;21050892;28;20032;-60
2022/10/18 15:03:44;;;;;;;19.17;14.07;;;16.20;99.90;;;;;;21057014;28;20400;-59
2022/10/18 15:13:54;;;;;;;26.55;17.42;;;15.90;99.90;;;;;;21062775;28;20481;-59
2022/10/18 15:24:19;;;;;;;24.38;16.23;;;15.60;99.90;;;;;;21027336;28;20386;-60
2022/10/18 15:34:25;;;;;;;23.23;16.40;;;14.80;99.90;;;;;;20951311;28;20458;-59
2022/10/18 15:44:31;;;;;;;12.10;7.97;;;14.10;99.90;;;;;;20994585;28;20049;-60
2022/10/18 15:54:33;;;;;;;6.78;4.30;;;13.50;99.90;;;;;;20982682;28;20044;-58
2022/10/18 16:04:36;;;;;;;6.93;4.25;;;12.80;99.90;;;;;;21023398;28;20493;-62
2022/10/18 16:14:38;;;;;;;5.45;3.28;;;12.40;99.90;;;;;;21058683;28;20469;-61
2022/10/18 16:24:41;;;;;;;10.20;5.97;;;12.10;99.90;;;;;;20981197;28;20118;-55
2022/10/18 16:34:44;;;;;;;9.30;5.70;;;11.70;99.90;;;;;;20899141;28;20081;-60
2022/10/18 16:44:47;;;;;;;4.97;3.22;;;11.50;99.90;;;;;;21056803;28;20051;-60
2022/10/18 16:54:50;;;;;;;6.20;4.60;;;11.20;99.90;;;;;;20969757;28;20052;-55
2022/10/18 17:04:53;;;;;;;8.23;4.93;;;11.00;99.90;;;;;;20884231;28;20088;-52
2022/10/18 17:14:55;;;;;;;8.00;4.32;;;10.90;99.90;;;;;;20923865;28;20390;-73
2022/10/18 17:24:58;;;;;;;6.90;4.65;;;10.90;99.90;;;;;;20894551;28;20517;-70
2022/10/18 17:35:01;;;;;;;6.00;4.22;;;10.60;99.90;;;;;;20941286;28;20036;-67
2022/10/18 17:45:04;;;;;;;9.85;5.63;;;10.60;99.90;;;;;;20969691;28;20734;-67
2022/10/18 17:55:07;;;;;;;9.30;5.68;;;10.50;99.90;;;;;;20928267;28;20075;-64
2022/10/18 18:05:09;;;;;;;4.60;3.25;;;10.40;99.90;;;;;;21011002;28;20444;-70
2022/10/18 18:15:12;;;;;;;6.05;2.80;;;10.30;99.90;;;;;;20991976;28;20406;-64
2022/10/18 18:25:14;;;;;;;5.85;3.95;;;10.10;99.90;;;;;;20975388;28;20032;-65
2022/10/18 18:35:17;;;;;;;6.45;2.90;;;10.30;99.90;;;;;;21017868;28;20426;-62
2022/10/18 18:45:20;;;;;;;8.40;4.30;;;10.30;99.90;;;;;;20944251;28;20045;-62
2022/10/18 18:55:22;;;;;;;8.50;5.50;;;10.40;99.90;;;;;;20945983;28;20041;-61
2022/10/18 19:05:26;;;;;;;5.68;3.78;;;10.40;99.90;;;;;;20960111;28;20033;-63
2022/10/18 19:15:32;;;;;;;9.07;3.42;;;10.40;99.90;;;;;;20941231;28;20036;-67
2022/10/18 19:25:36;;;;;;;7.55;3.50;;;10.30;99.90;;;;;;20954975;28;20478;-64
2022/10/18 19:35:39;;;;;;;3.97;2.65;;;10.30;99.90;;;;;;20942409;28;20067;-61
2022/10/18 19:45:42;;;;;;;6.68;3.70;;;10.30;99.90;;;;;;20912086;28;20048;-66
2022/10/18 19:55:44;;;;;;;4.78;2.72;;;10.50;99.90;;;;;;20934308;28;20033;-56
2022/10/18 20:05:54;;;;;;;6.05;2.70;;;10.40;99.90;;;;;;20928611;28;20040;-60
2022/10/18 20:15:58;;;;;;;3.83;2.53;;;10.30;99.90;;;;;;20973659;28;20062;-61
2022/10/18 20:26:04;;;;;;;4.10;2.38;;;10.30;99.90;;;;;;20984657;28;20492;-59
2022/10/18 20:36:16;;;;;;;6.30;2.20;;;10.30;99.90;;;;;;21048937;28;20424;-60
2022/10/18 20:46:19;;;;;;;4.18;2.40;;;10.30;99.90;;;;;;21049645;28;20082;-60
2022/10/18 20:56:25;;;;;;;7.35;2.45;;;10.40;99.90;;;;;;20971704;28;20110;-60
2022/10/18 21:06:33;;;;;;;4.82;2.00;;;10.40;99.90;;;;;;20942134;28;20040;-57
2022/10/18 21:16:36;;;;;;;4.43;2.17;;;10.50;99.90;;;;;;20925312;28;20083;-53
2022/10/18 21:26:39;;;;;;;7.28;2.80;;;10.50;99.90;;;;;;20968889;28;20029;-54
2022/10/18 21:36:44;;;;;;;6.78;2.70;;;10.70;99.90;;;;;;20910428;28;20102;-49
2022/10/18 21:46:46;;;;;;;9.38;2.40;;;11.00;99.90;;;;;;20820973;28;20388;-59
2022/10/18 21:56:49;;;;;;;5.63;2.63;;;11.20;99.90;;;;;;20809910;28;20092;-60
2022/10/18 22:06:52;;;;;;;5.60;2.42;;;11.40;99.90;;;;;;20828526;28;20037;-61
2022/10/18 22:16:54;;;;;;;4.75;2.20;;;11.60;99.90;;;;;;20848626;28;20127;-63
2022/10/18 22:26:57;;;;;;;8.02;2.20;;;12.20;99.90;;;;;;20802404;28;20033;-68
2022/10/18 22:37:03;;;;;;;6.53;2.45;;;12.60;99.90;;;;;;20830236;28;20482;-61
2022/10/18 22:47:05;;;;;;;5.47;2.00;;;12.70;99.90;;;;;;20857065;28;20653;-61
2022/10/18 22:57:08;;;;;;;5.80;1.98;;;12.70;99.90;;;;;;20871776;28;20100;-61
2022/10/18 23:07:10;;;;;;;6.43;2.20;;;12.90;99.90;;;;;;20853968;28;20032;-61
2022/10/18 23:17:12;;;;;;;6.65;2.30;;;13.00;99.90;;;;;;20950222;28;20552;-61
2022/10/18 23:27:15;;;;;;;9.50;2.97;;;13.10;99.90;;;;;;20965654;28;20122;-61
2022/10/18 23:37:18;;;;;;;4.53;2.38;;;13.00;99.90;;;;;;20962494;28;20094;-61
2022/10/18 23:47:20;;;;;;;6.65;2.47;;;12.90;99.90;;;;;;20962766;28;20490;-61
2022/10/18 23:57:23;;;;;;;5.10;2.25;;;13.00;99.90;;;;;;20978131;28;20044;-61
